Rijkevorsel, Belgium
Current Conditions -  °F | °C
As of 11:38 AM on Saturday 25 Oct 2014 (Local Time) from EHGR Reporting Station
Haze Haze  
Wind Chill: 13°   Ceiling: 200
Heat Index: 13°   Visibility: 0.87mi
Dew Point: 13°   Wind: 6mph
Humidity: 100%   Direction: 210°SSW
Pressure: 30.06"   Gusts: NA
Location:  51.35°N, 4.76°E
Report Text: EHGR 250938Z AUTO 21005KT 1400 BR OVC002 13/13 Q1018 AMB
Loading
Personal Weather Stations






























Interactive Weather Map
Tropical Storm Tracking
New forecast layout! Learn more

10-Day Weather Forecast

Advertisements
Track Severe Weather on mobile